Terminal Aerodrome Forecast
Issued by NWS

Home | Current Version | Previous Version | Text Only | Print | Product List | Glossary On
Versions: 1 2 3 4 5 6 7 8 9 10 11 12 13 14 15 16 17 18 19
073
FTUS46 KMTR 261124
TAFSTS
TAF
KSTS 261124Z 2612/2712 21003KT P6SM FEW100 SCT250
     FM261800 16005KT P6SM -RA BKN040 OVC150
     FM270300 21004KT 5SM -RA BR SCT008 BKN012 OVC025
      TEMPO 2708/2712 2SM -RA BR OVC010=

USA.gov is the U.S. government's official web portal to all federal, state and local government web resources and services.